Time;durP1;ratioP1;P1;durP2;ratioP2;P2;SDS_P1;SDS_P2;PMS_P1;PMS_P2;Temp;Humidity;BMP_temperature;BMP_pressure;BME280_temperature;BME280_humidity;BME280_pressure;Samples;Min_cycle;Max_cycle;Signal;HPM_P1;HPM_P2
2021/12/03 00:00:52;;;;;;;2.80;0.40;;;11.60;59.40;;;;;;5038224;28;20048;-72
2021/12/03 00:03:18;;;;;;;2.53;0.50;;;11.60;59.30;;;;;;5021282;28;20116;-74
2021/12/03 00:05:44;;;;;;;1.98;0.40;;;11.70;59.20;;;;;;5000298;28;20512;-73
2021/12/03 00:08:11;;;;;;;3.17;0.60;;;11.60;59.40;;;;;;5017270;28;20404;-74
2021/12/03 00:10:38;;;;;;;3.30;0.70;;;11.60;59.40;;;;;;5000291;28;20475;-75
2021/12/03 00:13:06;;;;;;;7.15;0.77;;;11.50;59.50;;;;;;5017399;28;20045;-73
2021/12/03 00:15:33;;;;;;;1.08;0.30;;;11.50;59.60;;;;;;5017574;28;20408;-74
2021/12/03 00:17:59;;;;;;;3.03;0.68;;;11.40;59.50;;;;;;4999964;28;20054;-74
2021/12/03 00:20:26;;;;;;;2.90;0.98;;;11.40;59.90;;;;;;4999491;28;20056;-72
2021/12/03 00:22:57;;;;;;;1.88;0.30;;;11.40;59.80;;;;;;5017030;28;20058;-74
2021/12/03 00:25:23;;;;;;;4.22;0.38;;;11.40;59.50;;;;;;5000011;28;20057;-73
2021/12/03 00:27:49;;;;;;;4.25;0.50;;;11.40;59.80;;;;;;5032080;28;20056;-74
2021/12/03 00:30:17;;;;;;;3.45;0.65;;;11.30;59.80;;;;;;5019282;28;20135;-75
2021/12/03 00:32:44;;;;;;;2.97;0.45;;;11.20;59.80;;;;;;5019835;28;20057;-73
2021/12/03 00:35:11;;;;;;;4.18;0.52;;;11.30;59.90;;;;;;5036659;28;20064;-75
2021/12/03 00:37:39;;;;;;;4.78;0.50;;;11.40;59.70;;;;;;5036469;28;20095;-73
2021/12/03 00:40:10;;;;;;;3.03;0.40;;;11.30;59.50;;;;;;5019345;28;20053;-73
2021/12/03 00:42:36;;;;;;;1.00;0.20;;;11.30;59.20;;;;;;5036611;28;20360;-73
2021/12/03 00:45:04;;;;;;;1.63;0.50;;;11.30;60.00;;;;;;5019821;28;20046;-74
2021/12/03 00:47:30;;;;;;;3.47;0.40;;;11.30;59.70;;;;;;5036287;28;20356;-73
2021/12/03 00:49:56;;;;;;;1.90;0.45;;;11.40;59.40;;;;;;5019063;28;20049;-74
2021/12/03 00:52:22;;;;;;;1.15;0.32;;;11.30;59.60;;;;;;5019092;28;20059;-74
2021/12/03 00:54:49;;;;;;;1.60;0.30;;;11.40;59.70;;;;;;5018859;28;20128;-73
2021/12/03 00:57:15;;;;;;;3.97;0.52;;;11.30;59.50;;;;;;5025304;28;20050;-73
2021/12/03 00:59:41;;;;;;;2.72;0.45;;;11.30;59.40;;;;;;4999284;28;20108;-73
2021/12/03 01:02:07;;;;;;;2.63;0.38;;;11.30;59.60;;;;;;4999025;28;20053;-74
2021/12/03 01:04:33;;;;;;;3.20;0.40;;;11.30;59.70;;;;;;4998901;28;20116;-73
2021/12/03 01:06:58;;;;;;;5.88;0.60;;;11.30;59.40;;;;;;5015960;28;20062;-75
2021/12/03 01:09:24;;;;;;;2.90;0.40;;;11.30;59.30;;;;;;5016300;28;20053;-74
2021/12/03 01:11:50;;;;;;;2.33;0.30;;;11.40;59.40;;;;;;5016009;28;20425;-74
2021/12/03 01:14:16;;;;;;;1.95;0.43;;;11.30;59.30;;;;;;4999207;28;20092;-74
2021/12/03 01:16:42;;;;;;;2.38;0.63;;;11.40;59.10;;;;;;4999161;28;20053;-73
2021/12/03 01:19:08;;;;;;;3.15;0.22;;;11.30;59.10;;;;;;5016105;28;20429;-73
2021/12/03 01:21:34;;;;;;;2.28;0.22;;;11.40;59.20;;;;;;4999085;28;20400;-75
2021/12/03 01:23:59;;;;;;;3.20;0.57;;;11.40;59.20;;;;;;4998727;28;20038;-76
2021/12/03 01:26:25;;;;;;;2.83;0.43;;;11.20;59.10;;;;;;5022065;28;20060;-73
2021/12/03 01:28:51;;;;;;;2.95;0.40;;;11.20;58.80;;;;;;5019080;28;20042;-74
2021/12/03 01:31:18;;;;;;;4.03;0.45;;;11.20;59.10;;;;;;5035242;28;20464;-73
2021/12/03 01:33:46;;;;;;;1.73;0.20;;;11.20;59.50;;;;;;5035693;28;20048;-73
2021/12/03 01:36:13;;;;;;;3.08;1.00;;;11.20;59.40;;;;;;5018082;28;20088;-76
2021/12/03 01:38:39;;;;;;;2.80;0.52;;;11.10;59.10;;;;;;5035767;28;20057;-72
2021/12/03 01:41:05;;;;;;;3.17;0.52;;;11.10;59.50;;;;;;5018401;28;20063;-73
2021/12/03 01:43:31;;;;;;;4.65;0.60;;;11.00;59.90;;;;;;5035469;28;20042;-73
2021/12/03 01:46:01;;;;;;;4.32;0.55;;;11.00;59.70;;;;;;5018065;28;20049;-77
2021/12/03 01:48:27;;;;;;;2.65;0.57;;;11.00;59.70;;;;;;5018358;28;20135;-74
2021/12/03 01:50:53;;;;;;;2.60;0.63;;;11.00;59.70;;;;;;5018129;28;20115;-73
2021/12/03 01:53:25;;;;;;;3.60;0.70;;;11.00;59.90;;;;;;5017995;28;20053;-75
2021/12/03 01:55:53;;;;;;;6.10;0.52;;;11.00;59.70;;;;;;5033893;28;20460;-74
2021/12/03 01:58:18;;;;;;;3.80;0.80;;;11.10;59.80;;;;;;4998994;28;20051;-75
2021/12/03 02:00:51;;;;;;;2.50;0.52;;;11.10;59.60;;;;;;4998736;28;20045;-74
2021/12/03 02:03:18;;;;;;;2.70;0.47;;;11.20;59.50;;;;;;5002320;28;20068;-74
2021/12/03 02:05:45;;;;;;;2.28;0.52;;;11.20;59.40;;;;;;4998511;28;20061;-72
2021/12/03 02:08:11;;;;;;;2.25;0.43;;;11.20;59.30;;;;;;5015180;28;20062;-75
2021/12/03 02:10:38;;;;;;;2.15;0.60;;;11.20;59.30;;;;;;5015172;28;20061;-73
2021/12/03 02:13:05;;;;;;;2.15;0.70;;;11.20;59.00;;;;;;5015095;28;20060;-73
2021/12/03 02:15:31;;;;;;;3.38;0.80;;;11.10;58.90;;;;;;5015197;28;20061;-74
2021/12/03 02:17:57;;;;;;;1.27;0.28;;;11.10;58.80;;;;;;4998252;28;20453;-74
2021/12/03 02:20:23;;;;;;;2.47;0.40;;;11.10;58.90;;;;;;5015709;28;20054;-76
2021/12/03 02:22:49;;;;;;;2.85;0.47;;;11.20;58.90;;;;;;4998164;28;20049;-75
2021/12/03 02:25:20;;;;;;;2.00;0.50;;;11.20;58.70;;;;;;5018979;28;20061;-73
2021/12/03 02:27:51;;;;;;;2.97;0.80;;;11.20;58.40;;;;;;4998147;28;20054;-74
2021/12/03 02:30:18;;;;;;;4.97;0.65;;;11.20;58.40;;;;;;5015380;28;20064;-76
2021/12/03 02:32:46;;;;;;;2.00;0.40;;;11.00;58.50;;;;;;4997907;28;20368;-73
2021/12/03 02:35:12;;;;;;;2.13;0.50;;;11.10;58.50;;;;;;4998753;28;20133;-73
2021/12/03 02:37:38;;;;;;;3.63;0.50;;;11.10;58.10;;;;;;4997826;28;20133;-74
2021/12/03 02:40:05;;;;;;;4.88;0.50;;;11.00;58.40;;;;;;4998187;28;20045;-75
2021/12/03 02:42:32;;;;;;;3.65;0.52;;;11.00;58.00;;;;;;5015901;28;20045;-73
2021/12/03 02:44:58;;;;;;;3.03;0.40;;;10.90;58.30;;;;;;5001773;28;20045;-74
2021/12/03 02:47:24;;;;;;;2.05;0.38;;;10.90;58.50;;;;;;5019098;28;20053;-75
2021/12/03 02:49:49;;;;;;;3.38;0.50;;;10.90;58.30;;;;;;5002482;28;20081;-74
2021/12/03 02:52:15;;;;;;;2.97;0.30;;;10.90;58.20;;;;;;5001640;28;20050;-74
2021/12/03 02:54:41;;;;;;;1.55;0.28;;;10.90;58.20;;;;;;5006913;28;20045;-74
2021/12/03 02:57:07;;;;;;;3.60;0.35;;;11.00;58.30;;;;;;5021049;28;20087;-72
2021/12/03 02:59:33;;;;;;;3.25;0.35;;;11.00;58.30;;;;;;5021426;28;20122;-75
2021/12/03 03:02:00;;;;;;;4.68;0.77;;;11.00;58.50;;;;;;5021307;28;20506;-73
2021/12/03 03:04:26;;;;;;;3.20;0.50;;;11.00;58.50;;;;;;5021256;28;20107;-73
2021/12/03 03:06:52;;;;;;;3.55;0.40;;;11.10;58.20;;;;;;5020791;28;20448;-72
2021/12/03 03:09:18;;;;;;;3.03;0.40;;;11.10;58.40;;;;;;5020982;28;20084;-74
2021/12/03 03:11:44;;;;;;;2.35;0.32;;;11.10;58.40;;;;;;5020704;28;20146;-74
2021/12/03 03:14:10;;;;;;;1.33;0.20;;;11.20;58.60;;;;;;5021099;28;20053;-74
2021/12/03 03:16:36;;;;;;;1.50;0.20;;;11.20;58.50;;;;;;5038613;28;20049;-74
2021/12/03 03:19:13;;;;;;;1.23;0.30;;;11.20;58.30;;;;;;5038305;28;20345;-74
2021/12/03 03:21:39;;;;;;;2.75;0.40;;;11.20;58.60;;;;;;5037817;28;20088;-73
2021/12/03 03:24:07;;;;;;;2.75;0.68;;;11.10;58.60;;;;;;5017541;28;20096;-74
2021/12/03 03:26:35;;;;;;;2.22;0.47;;;11.00;58.80;;;;;;5018138;28;20065;-72
2021/12/03 03:29:03;;;;;;;4.88;0.85;;;11.00;59.10;;;;;;5018878;28;20054;-74
2021/12/03 03:31:30;;;;;;;1.65;0.40;;;11.00;59.10;;;;;;5018170;28;20081;-73
2021/12/03 03:33:56;;;;;;;4.40;0.45;;;11.00;59.20;;;;;;5001029;28;20454;-72
2021/12/03 03:36:22;;;;;;;4.22;0.82;;;10.90;59.10;;;;;;5000648;28;20115;-73
2021/12/03 03:38:48;;;;;;;6.55;0.60;;;10.90;59.40;;;;;;5018175;28;20045;-73
2021/12/03 03:41:13;;;;;;;4.22;0.60;;;10.90;59.50;;;;;;5017984;28;20085;-73
2021/12/03 03:43:39;;;;;;;1.90;0.50;;;10.90;59.70;;;;;;5017986;28;20056;-73
2021/12/03 03:46:05;;;;;;;3.80;0.70;;;10.90;59.70;;;;;;5000893;28;20054;-76
2021/12/03 03:48:30;;;;;;;2.65;0.43;;;10.90;60.30;;;;;;5017796;28;20060;-74
2021/12/03 03:50:56;;;;;;;3.15;0.50;;;10.90;59.80;;;;;;5017862;28;20349;-73
2021/12/03 03:53:22;;;;;;;7.00;0.68;;;10.90;59.80;;;;;;5000444;28;20457;-73
2021/12/03 03:55:48;;;;;;;2.45;0.50;;;10.90;59.90;;;;;;5033882;28;20053;-74
2021/12/03 03:58:14;;;;;;;2.90;0.82;;;10.80;60.00;;;;;;5037780;28;20049;-73
2021/12/03 04:00:42;;;;;;;2.70;0.50;;;10.80;60.10;;;;;;5037786;28;20107;-74
2021/12/03 04:03:09;;;;;;;3.30;0.50;;;10.70;60.00;;;;;;5006584;28;20054;-74
2021/12/03 04:05:35;;;;;;;1.58;0.40;;;10.70;60.10;;;;;;5017466;28;20138;-73
2021/12/03 04:08:01;;;;;;;3.10;0.70;;;10.70;60.00;;;;;;4999681;28;20410;-72
2021/12/03 04:10:27;;;;;;;4.15;0.68;;;10.80;60.30;;;;;;5000342;28;20392;-74
2021/12/03 04:12:53;;;;;;;4.68;0.85;;;10.70;60.10;;;;;;5017299;28;20050;-75
2021/12/03 04:15:19;;;;;;;2.60;0.65;;;10.60;60.30;;;;;;5000353;28;20450;-74
2021/12/03 04:17:46;;;;;;;4.10;0.52;;;10.50;60.30;;;;;;5017909;28;20041;-74
2021/12/03 04:20:15;;;;;;;4.53;1.00;;;10.50;60.70;;;;;;5017091;28;20136;-73
2021/12/03 04:22:42;;;;;;;4.40;0.60;;;10.50;61.40;;;;;;5016885;28;20045;-74
2021/12/03 04:25:11;;;;;;;4.78;0.75;;;10.50;60.90;;;;;;5000215;28;20107;-72
2021/12/03 04:27:38;;;;;;;2.28;0.75;;;10.50;61.20;;;;;;4999961;28;20085;-74
2021/12/03 04:30:08;;;;;;;4.45;0.88;;;10.50;61.00;;;;;;5017792;28;20057;-72
2021/12/03 04:32:35;;;;;;;2.42;0.63;;;10.60;60.70;;;;;;5006982;28;20045;-73
2021/12/03 04:35:01;;;;;;;4.30;0.90;;;10.60;60.90;;;;;;5019258;28;20050;-73
2021/12/03 04:37:27;;;;;;;3.88;0.98;;;10.50;60.80;;;;;;5019468;28;20041;-74
2021/12/03 04:39:52;;;;;;;5.03;1.10;;;10.40;60.90;;;;;;5019284;28;20053;-75
2021/12/03 04:42:18;;;;;;;3.63;0.90;;;10.40;61.40;;;;;;5019569;28;20054;-73
2021/12/03 04:44:44;;;;;;;4.97;0.90;;;10.30;61.50;;;;;;5002840;28;20491;-73
2021/12/03 04:47:10;;;;;;;2.55;0.77;;;10.40;61.30;;;;;;5019194;28;20060;-73
2021/12/03 04:49:36;;;;;;;3.58;0.98;;;10.50;61.30;;;;;;5019321;28;20053;-73
2021/12/03 04:52:03;;;;;;;6.80;1.40;;;10.40;61.20;;;;;;5036345;28;20049;-74
2021/12/03 04:54:29;;;;;;;4.72;0.98;;;10.30;61.40;;;;;;5013793;28;20072;-73
2021/12/03 04:56:56;;;;;;;6.30;1.20;;;10.40;61.70;;;;;;5033984;28;20049;-72
2021/12/03 04:59:23;;;;;;;2.63;0.60;;;10.40;61.30;;;;;;5036619;28;20136;-74
2021/12/03 05:01:49;;;;;;;8.65;0.65;;;10.60;61.50;;;;;;5017788;28;20049;-68
2021/12/03 05:04:15;;;;;;;4.07;0.70;;;10.90;60.70;;;;;;5023227;28;20084;-71
2021/12/03 05:06:55;;;;;;;6.22;1.17;;;11.20;60.00;;;;;;5035557;28;20107;-71
2021/12/03 05:09:22;;;;;;;6.10;1.00;;;11.30;59.30;;;;;;5036359;28;20067;-71
2021/12/03 05:11:49;;;;;;;6.00;1.05;;;11.50;58.50;;;;;;5036190;28;20099;-70
2021/12/03 05:14:15;;;;;;;7.28;0.95;;;11.60;57.80;;;;;;5033475;28;20107;-68
2021/12/03 05:16:41;;;;;;;5.65;1.33;;;11.80;57.30;;;;;;5032725;28;20120;-71
2021/12/03 05:19:07;;;;;;;3.83;1.05;;;11.80;56.90;;;;;;5035240;28;20496;-71
2021/12/03 05:21:32;;;;;;;5.95;1.00;;;11.90;56.40;;;;;;5033332;28;20046;-73
2021/12/03 05:23:58;;;;;;;5.75;1.10;;;12.00;56.20;;;;;;5018737;28;20092;-71
2021/12/03 05:26:24;;;;;;;3.13;0.90;;;12.00;55.90;;;;;;5033674;28;20037;-71
2021/12/03 05:28:50;;;;;;;7.03;1.45;;;12.10;55.90;;;;;;5035548;28;20041;-71
2021/12/03 05:31:16;;;;;;;6.53;1.17;;;12.10;55.70;;;;;;5015144;28;20138;-73
2021/12/03 05:33:41;;;;;;;2.67;0.88;;;12.10;55.50;;;;;;5016018;28;20141;-72
2021/12/03 05:36:07;;;;;;;4.38;1.10;;;12.10;55.30;;;;;;5018075;28;20073;-70
2021/12/03 05:38:33;;;;;;;4.93;1.00;;;12.10;55.20;;;;;;5016631;28;20064;-69
2021/12/03 05:40:58;;;;;;;2.72;0.98;;;12.10;55.30;;;;;;5035613;28;20472;-70
2021/12/03 05:43:24;;;;;;;11.00;1.45;;;12.10;55.30;;;;;;5026742;28;20366;-73
2021/12/03 05:45:50;;;;;;;6.68;1.17;;;12.10;55.40;;;;;;5031415;28;20473;-76
2021/12/03 05:48:16;;;;;;;7.68;1.45;;;12.20;55.80;;;;;;5018193;28;20135;-74
2021/12/03 05:50:42;;;;;;;9.48;1.10;;;12.20;56.30;;;;;;5010300;28;20050;-71
2021/12/03 05:53:08;;;;;;;10.23;1.38;;;12.20;57.50;;;;;;5025088;28;20085;-72
2021/12/03 05:55:33;;;;;;;6.55;1.38;;;12.30;57.40;;;;;;4998290;28;20081;-72
2021/12/03 05:57:59;;;;;;;13.23;1.15;;;12.50;57.30;;;;;;5015566;28;20064;-74
2021/12/03 06:00:39;;;;;;;6.63;1.08;;;12.70;57.10;;;;;;5002992;28;20119;-78
2021/12/03 06:03:05;;;;;;;8.02;1.25;;;12.90;57.40;;;;;;5027347;28;20110;-70
2021/12/03 06:05:31;;;;;;;14.10;1.40;;;13.10;57.40;;;;;;5024652;28;20048;-73
2021/12/03 06:07:57;;;;;;;8.85;1.05;;;13.30;57.80;;;;;;5024525;28;20523;-73
2021/12/03 06:10:24;;;;;;;11.90;1.40;;;13.50;57.80;;;;;;5014038;28;20053;-72
2021/12/03 06:12:50;;;;;;;13.32;2.15;;;13.70;57.70;;;;;;5026782;28;20488;-76
2021/12/03 06:15:17;;;;;;;21.15;1.52;;;13.90;57.80;;;;;;5007735;28;20041;-76
2021/12/03 06:17:43;;;;;;;16.83;2.13;;;14.10;57.80;;;;;;5015003;28;20068;-75
2021/12/03 06:20:10;;;;;;;13.88;1.38;;;14.20;57.50;;;;;;5031889;28;20049;-73
2021/12/03 06:22:36;;;;;;;12.00;1.23;;;14.40;58.00;;;;;;5034439;28;20041;-77
2021/12/03 06:25:02;;;;;;;9.32;1.10;;;14.50;57.30;;;;;;5015626;28;20054;-77
2021/12/03 06:27:30;;;;;;;9.98;1.90;;;14.60;57.30;;;;;;4997612;28;20093;-74
2021/12/03 06:29:57;;;;;;;19.98;1.55;;;14.70;57.20;;;;;;4998426;28;20056;-76
2021/12/03 06:32:23;;;;;;;13.63;1.65;;;14.80;57.40;;;;;;5015111;28;20088;-74
2021/12/03 06:34:48;;;;;;;21.52;2.05;;;14.90;57.80;;;;;;5014994;28;20107;-75
2021/12/03 06:37:14;;;;;;;18.42;1.83;;;15.00;58.10;;;;;;4997828;28;20046;-76
2021/12/03 06:39:40;;;;;;;13.40;1.90;;;15.10;58.00;;;;;;5017310;28;20045;-77
2021/12/03 06:42:06;;;;;;;13.40;1.67;;;15.20;57.70;;;;;;4981665;28;20441;-77
2021/12/03 06:44:32;;;;;;;12.57;2.10;;;15.30;57.50;;;;;;5030525;28;20036;-78
2021/12/03 06:47:00;;;;;;;12.60;1.42;;;15.40;57.20;;;;;;5034568;28;20374;-78
2021/12/03 06:49:28;;;;;;;18.45;1.52;;;15.60;57.20;;;;;;4998990;28;20112;-78
2021/12/03 06:51:59;;;;;;;19.27;1.92;;;15.60;57.00;;;;;;4997645;28;20069;-74
2021/12/03 06:54:29;;;;;;;9.40;1.55;;;15.70;56.70;;;;;;4997678;28;20058;-73
2021/12/03 06:56:54;;;;;;;10.63;1.65;;;15.90;56.30;;;;;;5030996;28;20120;-73
2021/12/03 06:59:22;;;;;;;7.13;1.08;;;16.00;56.30;;;;;;5033827;28;20124;-73
2021/12/03 07:01:48;;;;;;;10.27;1.63;;;16.00;56.00;;;;;;5018125;28;20059;-73
2021/12/03 07:04:14;;;;;;;7.25;1.35;;;16.20;55.80;;;;;;5008996;28;20049;-74
2021/12/03 07:06:39;;;;;;;8.63;1.05;;;16.10;55.50;;;;;;5014494;28;20057;-76
2021/12/03 07:09:06;;;;;;;8.75;1.27;;;16.20;55.50;;;;;;5030791;28;20057;-72
2021/12/03 07:11:32;;;;;;;9.23;1.77;;;16.30;55.30;;;;;;5033392;28;20464;-73
2021/12/03 07:13:57;;;;;;;12.77;1.55;;;16.50;55.00;;;;;;5034280;28;20095;-74
2021/12/03 07:16:23;;;;;;;14.07;1.77;;;16.50;55.00;;;;;;5034447;28;20052;-72
2021/12/03 07:18:49;;;;;;;8.85;1.52;;;16.60;54.80;;;;;;5034453;28;20060;-73
2021/12/03 07:21:15;;;;;;;10.10;1.50;;;16.70;54.40;;;;;;5034602;28;20121;-72
2021/12/03 07:23:41;;;;;;;11.13;1.45;;;16.70;54.20;;;;;;5034053;28;20042;-73
2021/12/03 07:26:08;;;;;;;11.25;1.63;;;16.80;54.20;;;;;;5008620;28;20069;-73
2021/12/03 07:28:34;;;;;;;8.77;1.40;;;16.80;53.80;;;;;;5014376;28;20056;-74
2021/12/03 07:31:00;;;;;;;7.90;1.25;;;16.80;53.60;;;;;;5038241;28;20064;-74
2021/12/03 07:33:28;;;;;;;6.53;0.90;;;16.80;53.30;;;;;;5000448;28;20056;-74
2021/12/03 07:35:55;;;;;;;4.40;0.80;;;16.80;53.10;;;;;;5000921;28;20124;-73
2021/12/03 07:38:21;;;;;;;8.07;1.27;;;16.70;53.10;;;;;;5000498;28;20050;-72
2021/12/03 07:40:51;;;;;;;6.18;1.13;;;16.70;53.20;;;;;;5000712;28;20038;-71
2021/12/03 07:43:17;;;;;;;6.53;1.20;;;16.60;53.30;;;;;;5001647;28;20056;-70
2021/12/03 07:45:45;;;;;;;9.57;1.08;;;16.60;53.30;;;;;;5037850;28;20053;-70
2021/12/03 07:48:11;;;;;;;6.70;1.58;;;16.60;52.90;;;;;;5017780;28;20045;-71
2021/12/03 07:50:39;;;;;;;7.03;1.02;;;16.60;52.50;;;;;;5031173;28;20110;-70
2021/12/03 07:53:06;;;;;;;7.63;1.10;;;16.50;52.40;;;;;;5000366;28;20050;-72
2021/12/03 07:55:32;;;;;;;10.82;1.00;;;16.30;52.30;;;;;;5017614;28;20046;-71
2021/12/03 07:57:58;;;;;;;5.97;1.02;;;15.30;52.50;;;;;;5000348;28;20081;-73
2021/12/03 08:00:24;;;;;;;11.45;1.05;;;15.50;53.80;;;;;;5017702;28;20070;-74
2021/12/03 08:02:50;;;;;;;8.25;1.30;;;15.30;51.10;;;;;;5023680;28;20369;-72
2021/12/03 08:05:16;;;;;;;12.57;1.50;;;15.00;54.00;;;;;;5018597;28;20054;-73
2021/12/03 08:07:45;;;;;;;11.80;1.25;;;15.30;54.60;;;;;;4983673;28;20439;-73
2021/12/03 08:10:12;;;;;;;8.10;1.23;;;15.60;54.40;;;;;;5000536;28;20053;-74
2021/12/03 08:12:42;;;;;;;7.47;1.02;;;15.80;53.70;;;;;;5017512;28;20352;-76
2021/12/03 08:15:08;;;;;;;10.23;1.00;;;15.90;53.00;;;;;;5000047;28;20096;-74
2021/12/03 08:17:34;;;;;;;6.30;1.33;;;16.10;52.70;;;;;;5017858;28;20132;-74
2021/12/03 08:20:00;;;;;;;4.75;1.10;;;16.10;52.40;;;;;;5017511;28;20345;-73
2021/12/03 08:22:27;;;;;;;8.48;1.08;;;16.20;52.40;;;;;;5017528;28;20368;-73
2021/12/03 08:24:52;;;;;;;6.53;1.40;;;16.20;52.50;;;;;;5017346;28;20620;-76
2021/12/03 08:27:18;;;;;;;6.30;1.25;;;16.20;52.30;;;;;;5017470;28;20133;-77
2021/12/03 08:29:44;;;;;;;10.80;1.23;;;16.30;51.70;;;;;;5017221;28;20050;-76
2021/12/03 08:32:10;;;;;;;8.38;1.05;;;16.20;51.40;;;;;;4999609;28;20100;-78
2021/12/03 08:34:36;;;;;;;7.13;1.15;;;16.20;51.70;;;;;;5016778;28;20464;-73
2021/12/03 08:37:03;;;;;;;6.97;1.08;;;16.20;51.80;;;;;;5017410;28;20330;-74
2021/12/03 08:39:30;;;;;;;8.15;1.50;;;16.20;51.90;;;;;;5000478;28;20133;-75
2021/12/03 08:41:57;;;;;;;6.63;1.23;;;16.20;52.10;;;;;;4999506;28;20060;-73
2021/12/03 08:44:23;;;;;;;8.32;1.00;;;16.20;51.90;;;;;;4999902;28;20125;-73
2021/12/03 08:46:57;;;;;;;7.13;1.10;;;15.90;51.90;;;;;;5016754;28;20046;-75
2021/12/03 08:49:38;;;;;;;18.35;2.00;;;15.90;52.00;;;;;;4999208;28;20068;-74
2021/12/03 08:54:50;;;;;;;7.55;1.10;;;15.90;52.70;;;;;;5016667;28;20050;-76
2021/12/03 08:57:30;;;;;;;14.23;1.48;;;15.80;53.20;;;;;;4999179;28;20073;-77
2021/12/03 08:59:59;;;;;;;7.40;1.20;;;15.90;58.60;;;;;;4998746;28;20038;-81
2021/12/03 09:02:27;;;;;;;10.65;1.63;;;15.90;56.50;;;;;;4998182;28;20057;-78
2021/12/03 09:04:53;;;;;;;17.65;1.85;;;16.00;55.40;;;;;;4999021;28;20038;-77
2021/12/03 09:07:19;;;;;;;11.18;1.77;;;15.60;54.90;;;;;;4982711;28;20097;-77
2021/12/03 09:09:45;;;;;;;10.38;1.50;;;15.80;55.30;;;;;;4998991;28;20440;-79
2021/12/03 09:12:19;;;;;;;11.68;2.22;;;15.90;54.70;;;;;;4998748;28;20538;-79
2021/12/03 09:14:54;;;;;;;13.25;1.98;;;16.00;54.10;;;;;;4982833;28;20073;-78
2021/12/03 09:17:31;;;;;;;19.35;2.20;;;16.10;53.80;;;;;;4999129;28;20092;-79
2021/12/03 09:22:51;;;;;;;27.73;4.00;;;16.00;53.50;;;;;;5016242;28;20107;-76
2021/12/03 09:25:22;;;;;;;25.20;2.88;;;16.20;53.30;;;;;;4982525;28;20042;-78
2021/12/03 09:27:49;;;;;;;13.32;2.08;;;16.20;52.60;;;;;;4999085;28;20111;-79
2021/12/03 09:30:16;;;;;;;17.63;2.72;;;16.20;51.60;;;;;;4982866;28;20080;-75
2021/12/03 09:32:47;;;;;;;14.27;2.70;;;16.20;51.40;;;;;;5015878;28;20049;-75
2021/12/03 09:35:13;;;;;;;16.55;2.33;;;16.30;51.30;;;;;;5015686;28;20077;-81
2021/12/03 09:37:39;;;;;;;12.32;1.83;;;16.40;51.40;;;;;;5016196;28;20094;-78
2021/12/03 09:40:08;;;;;;;11.85;2.33;;;16.40;51.40;;;;;;5015819;28;20061;-78
2021/12/03 09:42:37;;;;;;;10.65;1.73;;;16.00;49.40;;;;;;4998806;28;20054;-81
2021/12/03 09:45:05;;;;;;;11.98;1.45;;;15.10;51.30;;;;;;4982206;28;20144;-80
2021/12/03 09:47:32;;;;;;;10.40;1.48;;;15.20;54.80;;;;;;4981893;28;20045;-80
2021/12/03 09:49:59;;;;;;;6.95;2.28;;;15.50;54.80;;;;;;4997981;28;20471;-80
2021/12/03 09:52:46;;;;;;;8.05;1.55;;;15.80;54.50;;;;;;4998166;28;20050;-79
2021/12/03 09:55:14;;;;;;;8.07;1.25;;;16.00;54.20;;;;;;5015921;28;20046;-78
2021/12/03 09:58:00;;;;;;;9.32;2.00;;;16.30;53.80;;;;;;4998357;28;20085;-82
2021/12/03 10:19:58;;;;;;;7.22;1.55;;;16.20;52.90;;;;;;5004740;28;20408;-79
2021/12/03 10:23:12;;;;;;;11.88;1.85;;;16.30;53.20;;;;;;4998823;28;20065;-79
2021/12/03 10:33:35;;;;;;;6.65;1.10;;;16.50;52.90;;;;;;4998019;28;20444;-80
2021/12/03 10:49:26;;;;;;;6.75;0.70;;;16.60;52.80;;;;;;4998078;28;20078;-75
2021/12/03 14:41:42;;;;;;;5.75;1.80;;;17.80;53.40;;;;;;4778368;30;20417;-77
2021/12/03 14:46:49;;;;;;;8.23;1.25;;;17.80;53.60;;;;;;4793314;30;20430;-78
2021/12/03 14:49:44;;;;;;;7.65;1.73;;;17.80;53.60;;;;;;4777156;30;20124;-77
2021/12/03 14:54:57;;;;;;;7.40;2.15;;;17.80;53.30;;;;;;4777126;30;20208;-76
2021/12/03 14:57:49;;;;;;;3.15;1.55;;;17.80;53.40;;;;;;4793005;30;20047;-78
2021/12/03 15:01:10;;;;;;;5.82;1.30;;;17.80;53.60;;;;;;4793043;30;20051;-79
2021/12/03 15:08:58;;;;;;;4.70;1.55;;;17.80;53.60;;;;;;4777402;30;20099;-76
2021/12/03 15:25:01;;;;;;;7.22;1.65;;;17.70;53.50;;;;;;4776905;30;20364;-76
2021/12/03 15:31:20;;;;;;;4.30;1.13;;;16.90;55.60;;;;;;4792187;30;19930;-75
2021/12/03 16:06:16;;;;;;;8.02;1.38;;;17.60;59.60;;;;;;4719351;30;20140;-77
2021/12/03 16:08:42;;;;;;;6.55;0.93;;;17.60;59.60;;;;;;4774630;30;20430;-79
2021/12/03 16:13:50;;;;;;;7.80;1.17;;;17.60;59.30;;;;;;4790807;30;20059;-77
2021/12/03 16:23:45;;;;;;;7.65;1.40;;;17.60;59.00;;;;;;4791254;30;20050;-80
2021/12/03 16:53:13;;;;;;;5.35;0.90;;;17.90;60.90;;;;;;4790038;30;20055;-74
2021/12/03 16:55:39;;;;;;;4.78;0.90;;;17.90;61.00;;;;;;4774023;30;20408;-74
2021/12/03 16:58:05;;;;;;;10.70;1.70;;;17.90;61.20;;;;;;4775591;30;20412;-76
2021/12/03 17:00:41;;;;;;;4.93;0.80;;;17.90;61.50;;;;;;4791262;29;20123;-73
2021/12/03 17:03:20;;;;;;;6.30;0.93;;;18.00;61.70;;;;;;4791256;30;20083;-75
2021/12/03 17:06:52;;;;;;;9.02;1.23;;;17.90;61.90;;;;;;4790740;30;20055;-75
2021/12/03 17:11:47;;;;;;;4.93;0.70;;;17.90;62.20;;;;;;4791130;30;20112;-73
2021/12/03 17:14:25;;;;;;;2.65;0.90;;;17.80;62.20;;;;;;4790707;30;20055;-74
2021/12/03 17:56:24;;;;;;;4.28;1.13;;;17.10;63.40;;;;;;4592238;31;20066;-81
2021/12/03 18:52:43;;;;;;;1.95;0.68;;;16.40;63.60;;;;;;4734391;30;20068;-80
2021/12/03 18:59:21;;;;;;;2.72;0.60;;;16.40;63.50;;;;;;4725858;30;20061;-81
2021/12/03 19:02:29;;;;;;;1.23;0.63;;;16.30;63.60;;;;;;4716602;30;20052;-81
2021/12/03 19:14:56;;;;;;;1.25;0.50;;;16.20;63.80;;;;;;4679893;30;20506;-81
2021/12/03 19:18:05;;;;;;;0.85;0.60;;;16.20;64.00;;;;;;4702562;30;20063;-81
2021/12/03 19:21:15;;;;;;;1.08;0.70;;;16.20;64.10;;;;;;4768783;30;20472;-81
2021/12/03 19:24:36;;;;;;;0.82;0.80;;;16.20;64.20;;;;;;4750762;30;20075;-80
2021/12/03 19:27:31;;;;;;;2.35;0.85;;;16.10;64.30;;;;;;4759068;30;20068;-80
2021/12/03 19:30:37;;;;;;;2.25;0.90;;;16.10;64.40;;;;;;4758582;30;20056;-79
2021/12/03 19:33:48;;;;;;;1.30;0.85;;;16.10;64.40;;;;;;4761029;30;20063;-81
2021/12/03 19:36:51;;;;;;;1.10;0.70;;;16.10;64.60;;;;;;4759213;30;20051;-80
2021/12/03 19:43:17;;;;;;;1.88;0.90;;;16.00;64.60;;;;;;4776134;30;20047;-81
2021/12/03 19:46:39;;;;;;;0.95;0.75;;;16.00;64.50;;;;;;4792258;30;20062;-80
2021/12/03 19:49:34;;;;;;;1.02;0.80;;;16.00;64.60;;;;;;4756934;30;20138;-80
2021/12/03 19:52:37;;;;;;;;;;;;;;;;;;;;;
2021/12/03 19:55:23;;;;;;;1.15;0.90;;;15.90;64.80;;;;;;4792231;30;20050;-82
2021/12/03 19:58:05;;;;;;;1.10;0.82;;;15.90;64.90;;;;;;4762179;30;20148;-81
2021/12/03 20:00:46;;;;;;;1.63;0.98;;;15.90;64.90;;;;;;4761452;30;20051;-81
2021/12/03 20:03:52;;;;;;;1.20;0.90;;;15.90;65.00;;;;;;4761465;30;20070;-81
2021/12/03 20:06:41;;;;;;;1.75;1.10;;;15.90;64.80;;;;;;4762056;30;20067;-82
2021/12/03 20:09:17;;;;;;;2.08;1.70;;;15.90;65.00;;;;;;4761356;30;20138;-80
2021/12/03 20:12:25;;;;;;;1.35;1.10;;;15.90;65.10;;;;;;4792219;30;20050;-79
2021/12/03 20:15:08;;;;;;;1.63;1.52;;;15.90;65.00;;;;;;4775959;30;20360;-81
2021/12/03 20:18:02;;;;;;;1.73;1.55;;;15.80;65.00;;;;;;4775747;30;20058;-80
2021/12/03 20:20:42;;;;;;;1.60;1.40;;;15.80;65.00;;;;;;4761340;30;20171;-80
2021/12/03 20:23:28;;;;;;;1.85;1.45;;;15.80;65.00;;;;;;4761036;30;20051;-79
2021/12/03 20:37:52;;;;;;;2.25;2.05;;;15.80;65.00;;;;;;4775302;29;20372;-80
2021/12/03 20:40:50;;;;;;;2.50;2.30;;;15.80;65.00;;;;;;4776246;30;20047;-79
2021/12/03 20:44:02;;;;;;;3.67;2.85;;;15.80;65.10;;;;;;4775524;30;20380;-80
2021/12/03 20:49:38;;;;;;;4.20;2.40;;;15.70;65.20;;;;;;4775274;30;20065;-80
2021/12/03 21:09:07;;;;;;;3.70;3.30;;;15.70;65.50;;;;;;4774977;30;20055;-79
2021/12/03 21:11:46;;;;;;;3.95;3.55;;;15.60;65.50;;;;;;4791634;30;20055;-81
2021/12/03 21:14:20;;;;;;;4.20;3.80;;;15.60;65.70;;;;;;4759914;30;20059;-79
2021/12/03 21:19:42;;;;;;;4.30;3.90;;;15.60;65.80;;;;;;4774898;30;20066;-79
2021/12/03 21:22:15;;;;;;;5.53;4.35;;;15.50;65.80;;;;;;4759758;30;20062;-81
2021/12/03 21:24:44;;;;;;;4.75;3.75;;;15.60;65.80;;;;;;4775637;30;20110;-82
2021/12/03 21:27:20;;;;;;;4.47;4.07;;;15.50;65.80;;;;;;4774730;30;20039;-78
2021/12/03 21:40:54;;;;;;;4.32;3.92;;;15.50;66.00;;;;;;4757187;30;20052;-79
2021/12/03 21:43:12;;;;;;;4.72;4.15;;;15.50;65.90;;;;;;4756603;30;20380;-80
2021/12/03 21:45:38;;;;;;;5.03;4.45;;;15.50;66.00;;;;;;4742207;30;20058;-80
2021/12/03 21:48:04;;;;;;;5.45;4.07;;;15.50;66.00;;;;;;4741955;30;20048;-81
2021/12/03 21:50:29;;;;;;;5.18;4.05;;;15.60;66.00;;;;;;4756664;30;20083;-79
2021/12/03 21:52:55;;;;;;;4.57;4.05;;;15.50;66.00;;;;;;4742223;30;20047;-80
2021/12/03 21:55:23;;;;;;;4.70;4.15;;;15.50;66.00;;;;;;4757226;30;20448;-80